createdAt,value
2019-05-25T00:13:15.017Z,3.7
2019-05-25T00:28:57.417Z,3.4
2019-05-25T00:43:52.497Z,3.3
2019-05-25T00:58:42.771Z,3.2
2019-05-25T01:13:41.305Z,3.3
2019-05-25T01:28:20.861Z,3.9
2019-05-25T01:43:57.023Z,3.7
2019-05-25T01:58:35.336Z,3
2019-05-25T02:13:16.483Z,2.6
2019-05-25T02:29:05.014Z,3.2
2019-05-25T02:43:46.199Z,2.6
2019-05-25T02:58:26.675Z,2.5
2019-05-25T03:13:37.786Z,2.8
2019-05-25T03:29:03.721Z,2.6
2019-05-25T03:43:47.599Z,2.8
2019-05-25T03:59:15.415Z,2.5
2019-05-25T04:13:48.188Z,2.5
2019-05-25T04:29:13.493Z,3.8
2019-05-25T04:44:06.905Z,3.1
2019-05-25T04:58:38.295Z,2.3
2019-05-25T05:14:02.430Z,2
2019-05-25T05:28:37.994Z,2.5
2019-05-25T05:44:10.377Z,5.5
2019-05-25T05:58:56.204Z,4.1
2019-05-25T06:14:20.455Z,8.1
2019-05-25T06:28:56.691Z,6.4
2019-05-25T06:43:39.323Z,8
2019-05-25T06:59:11.826Z,7.5
2019-05-25T07:14:01.256Z,7.6
2019-05-25T07:29:24.258Z,5.7
2019-05-25T07:43:50.825Z,10.7
2019-05-25T07:59:09.749Z,7.1
2019-05-25T08:00:55.815Z,7.1
2019-05-25T08:13:44.422Z,6
2019-05-25T08:29:38.129Z,5.5
2019-05-25T08:44:26.325Z,4.4
2019-05-25T08:46:16.350Z,4.4
2019-05-25T08:59:24.770Z,4.3
2019-05-25T09:14:20.667Z,4.4
2019-05-25T09:29:11.917Z,5.1
2019-05-25T09:44:06.512Z,4.5
2019-05-25T09:58:55.493Z,7.2
2019-05-25T10:14:57.710Z,6.6
2019-05-25T10:29:49.191Z,5.6
2019-05-25T10:44:39.856Z,6.8
2019-05-25T10:59:53.300Z,5.8
2019-05-25T11:14:33.584Z,9.9
2019-05-25T11:29:22.964Z,5.7
2019-05-25T11:44:29.929Z,3.2
2019-05-25T11:52:12.023Z,3.2
2019-05-25T11:59:16.755Z,2.9
2019-05-25T12:14:23.780Z,3.5
2019-05-25T12:29:22.053Z,4.3
2019-05-25T12:31:01.562Z,4.3
2019-05-25T12:44:38.063Z,5.2
2019-05-25T12:55:11.672Z,5.2
2019-05-25T13:00:15.106Z,9.9
2019-05-25T13:00:15.604Z,9.9
2019-05-25T13:00:16.037Z,9.9
2019-05-25T13:05:44.017Z,9.9
2019-05-25T13:14:37.809Z,11.7
2019-05-25T13:29:29.175Z,5.5
2019-05-25T13:34:59.264Z,5.5
2019-05-25T13:44:39.574Z,5.6
2019-05-25T13:59:22.707Z,6.7
2019-05-25T14:14:28.351Z,5.7
2019-05-25T14:27:48.514Z,5.7
2019-05-25T14:29:18.822Z,5.7
2019-05-25T14:30:10.837Z,4.2
2019-05-25T14:44:22.327Z,7.2
2019-05-25T15:00:15.873Z,6.3
2019-05-25T15:10:28.836Z,6.3
2019-05-25T15:13:04.871Z,6.3
2019-05-25T15:14:57.984Z,4.7
2019-05-25T15:22:32.793Z,4.7
2019-05-25T15:29:48.390Z,5.1
2019-05-25T15:44:31.278Z,3.7
2019-05-25T15:59:49.155Z,3.3
2019-05-25T16:14:40.200Z,3.7
2019-05-25T16:30:06.897Z,4
2019-05-25T16:45:05.771Z,7.1
2019-05-25T16:59:59.506Z,7.3
2019-05-25T17:14:39.152Z,4.8
2019-05-25T17:30:22.067Z,3
2019-05-25T17:44:59.404Z,6.2
2019-05-25T17:59:31.821Z,4.3
2019-05-25T18:14:31.886Z,4.5
2019-05-25T18:30:16.174Z,7.1
2019-05-25T18:45:06.951Z,6.5
2019-05-25T18:59:45.559Z,9.7
2019-05-25T19:14:47.985Z,9.8
2019-05-25T19:21:44.214Z,9.8
2019-05-25T19:30:34.617Z,10.3
2019-05-25T19:44:37.858Z,9.1
2019-05-25T20:05:49.791Z,9.8
2019-05-25T20:14:48.787Z,9.7
2019-05-25T20:30:23.183Z,7
2019-05-25T20:45:24.941Z,7.3
2019-05-25T21:00:35.144Z,7.7
2019-05-25T21:15:25.999Z,8.1
2019-05-25T21:30:11.449Z,7.6
2019-05-25T21:45:42.427Z,8.7
2019-05-25T22:00:33.865Z,6.6
2019-05-25T22:15:14.230Z,6.4
2019-05-25T22:30:45.228Z,7.5
2019-05-25T22:45:19.078Z,6.7
2019-05-25T22:59:56.303Z,5.8
2019-05-25T23:15:37.274Z,5.3
2019-05-25T23:30:11.407Z,3.7
2019-05-25T23:45:49.927Z,4.5
